createdAt,value
2022-11-27T00:01:37.927Z,14.17
2022-11-27T00:04:07.332Z,12.83
2022-11-27T00:06:37.179Z,15.07
2022-11-27T00:09:08.764Z,17.07
2022-11-27T00:11:39.471Z,11.60
2022-11-27T00:14:11.761Z,13.53
2022-11-27T00:16:40.622Z,15.37
2022-11-27T00:19:09.146Z,13.20
2022-11-27T00:21:38.162Z,14.07
2022-11-27T00:24:09.490Z,16.67
2022-11-27T00:26:38.552Z,13.23
2022-11-27T00:29:09.276Z,14.70
2022-11-27T00:31:38.330Z,13.80
2022-11-27T00:34:08.869Z,16.03
2022-11-27T00:36:37.690Z,14.87
2022-11-27T00:39:06.705Z,13.53
2022-11-27T00:41:35.507Z,16.77
2022-11-27T00:44:04.021Z,14.97
2022-11-27T00:46:36.343Z,16.27
2022-11-27T00:49:07.124Z,13.83
2022-11-27T00:51:36.459Z,17.13
2022-11-27T00:54:05.200Z,12.83
2022-11-27T00:56:35.452Z,16.03
2022-11-27T00:59:04.912Z,16.67
2022-11-27T01:01:36.718Z,17.87
2022-11-27T01:04:08.508Z,13.43
2022-11-27T01:06:37.639Z,15.00
2022-11-27T01:09:06.714Z,15.90
2022-11-27T01:11:36.654Z,14.10
2022-11-27T01:14:08.233Z,14.00
2022-11-27T01:16:42.894Z,15.77
2022-11-27T01:19:13.162Z,15.80
2022-11-27T01:21:42.278Z,13.70
2022-11-27T01:24:13.155Z,13.33
2022-11-27T01:26:41.775Z,13.67
2022-11-27T01:29:10.693Z,13.27
2022-11-27T01:31:41.701Z,14.03
2022-11-27T01:34:15.734Z,16.43
2022-11-27T01:36:44.572Z,12.40
2022-11-27T01:39:16.725Z,14.30
2022-11-27T01:41:47.570Z,12.00
2022-11-27T01:44:52.355Z,15.30
2022-11-27T01:47:33.831Z,13.30
2022-11-27T01:50:11.426Z,15.70
2022-11-27T01:52:45.629Z,16.93
2022-11-27T01:55:20.519Z,15.73
2022-11-27T01:57:54.464Z,13.87
2022-11-27T02:00:23.611Z,15.73
2022-11-27T02:02:53.424Z,12.43
2022-11-27T02:05:24.318Z,13.27
2022-11-27T02:07:54.507Z,15.63
2022-11-27T02:10:24.085Z,14.97
2022-11-27T02:12:59.877Z,13.90
2022-11-27T02:15:36.020Z,15.00
2022-11-27T02:18:14.078Z,13.87
2022-11-27T02:20:49.572Z,12.47
2022-11-27T02:23:46.542Z,12.87
2022-11-27T02:26:46.495Z,15.20
2022-11-27T02:29:21.130Z,15.07
2022-11-27T02:31:56.656Z,14.20
2022-11-27T02:34:29.710Z,15.30
2022-11-27T02:37:04.196Z,14.70
2022-11-27T02:39:41.299Z,13.23
2022-11-27T02:42:17.709Z,11.93
2022-11-27T02:44:52.068Z,13.13
2022-11-27T02:47:21.853Z,13.10
2022-11-27T02:49:52.383Z,13.37
2022-11-27T02:52:21.861Z,14.50
2022-11-27T02:54:53.031Z,14.83
2022-11-27T02:57:24.347Z,11.13
2022-11-27T02:59:57.093Z,12.40
2022-11-27T03:02:30.508Z,13.53
2022-11-27T03:05:03.053Z,10.30
2022-11-27T03:07:38.564Z,12.27
2022-11-27T03:10:13.794Z,12.20
2022-11-27T03:12:42.162Z,10.90
2022-11-27T03:15:13.124Z,14.80
2022-11-27T03:17:54.175Z,13.90
2022-11-27T03:20:26.916Z,12.13
2022-11-27T03:22:56.195Z,12.90
2022-11-27T03:25:25.768Z,15.10
2022-11-27T03:27:59.197Z,12.70
2022-11-27T03:30:29.461Z,14.67
2022-11-27T03:32:58.355Z,12.07
2022-11-27T03:35:28.170Z,11.93
2022-11-27T03:37:59.339Z,13.13
2022-11-27T03:40:34.276Z,14.13
2022-11-27T03:43:07.987Z,12.77
2022-11-27T03:45:46.063Z,16.13
2022-11-27T03:48:26.926Z,13.53
2022-11-27T03:51:07.113Z,13.47
2022-11-27T03:53:45.427Z,13.47
2022-11-27T03:56:21.664Z,13.30
2022-11-27T03:58:56.120Z,11.73
2022-11-27T04:01:28.544Z,13.17
2022-11-27T04:03:57.411Z,17.30
2022-11-27T04:06:26.145Z,12.13
2022-11-27T04:08:55.707Z,14.63
2022-11-27T04:11:24.117Z,15.10
2022-11-27T04:13:52.914Z,13.47
2022-11-27T04:16:21.594Z,13.93
2022-11-27T04:18:51.512Z,14.97
2022-11-27T04:21:19.892Z,14.50
2022-11-27T04:23:48.393Z,15.07
2022-11-27T04:26:17.328Z,13.17
2022-11-27T04:28:45.941Z,16.60
2022-11-27T04:31:14.374Z,12.57
2022-11-27T04:33:42.938Z,15.53
2022-11-27T04:36:12.663Z,13.97
2022-11-27T04:38:41.129Z,15.10
2022-11-27T04:41:09.612Z,13.80
2022-11-27T04:43:38.041Z,15.27
2022-11-27T04:46:06.600Z,13.67
2022-11-27T04:48:35.367Z,13.20
2022-11-27T04:51:03.821Z,12.87
2022-11-27T04:53:33.802Z,12.37
2022-11-27T04:56:02.111Z,14.93
2022-11-27T04:58:30.515Z,15.67
2022-11-27T05:00:58.997Z,14.13
2022-11-27T05:03:27.409Z,14.53
2022-11-27T05:05:57.545Z,12.43
2022-11-27T05:08:26.317Z,14.23
2022-11-27T05:11:03.383Z,14.17
2022-11-27T05:13:32.126Z,13.67
2022-11-27T05:16:00.497Z,15.13
2022-11-27T05:18:28.793Z,12.40
2022-11-27T05:20:58.549Z,13.43
2022-11-27T05:23:27.810Z,13.90
2022-11-27T05:25:57.236Z,13.13
2022-11-27T05:28:28.407Z,14.57
2022-11-27T05:30:56.761Z,14.13
2022-11-27T05:33:25.185Z,11.47
2022-11-27T05:35:53.694Z,10.63
2022-11-27T05:38:22.119Z,10.33
2022-11-27T05:40:50.531Z,10.27
2022-11-27T05:43:19.206Z,11.37
2022-11-27T05:45:48.926Z,10.80
2022-11-27T05:48:17.420Z,12.70
2022-11-27T05:50:45.749Z,9.77
2022-11-27T05:53:14.088Z,11.53
2022-11-27T05:55:42.592Z,12.73
2022-11-27T05:58:10.901Z,11.27
2022-11-27T06:00:39.327Z,11.33
2022-11-27T06:03:09.558Z,13.03
2022-11-27T06:05:39.877Z,14.03
2022-11-27T06:08:08.499Z,13.30
2022-11-27T06:10:38.977Z,9.97
2022-11-27T06:13:07.503Z,12.13
2022-11-27T06:15:37.392Z,11.40
2022-11-27T06:18:06.230Z,13.50
2022-11-27T06:20:39.529Z,12.33
2022-11-27T06:23:10.680Z,13.00
2022-11-27T06:25:38.960Z,11.83
2022-11-27T06:28:07.442Z,13.00
2022-11-27T06:30:35.724Z,10.97
2022-11-27T06:33:04.158Z,11.60
2022-11-27T06:35:33.030Z,11.53
2022-11-27T06:38:02.678Z,10.87
2022-11-27T06:40:31.288Z,10.30
2022-11-27T06:42:59.635Z,10.57
2022-11-27T06:45:28.032Z,10.77
2022-11-27T06:47:56.374Z,10.00
2022-11-27T06:50:24.653Z,11.27
2022-11-27T06:52:53.002Z,9.70
2022-11-27T06:55:22.754Z,9.20
2022-11-27T06:57:52.068Z,10.30
2022-11-27T07:00:21.206Z,12.53
2022-11-27T07:02:54.454Z,11.47
2022-11-27T07:05:22.940Z,9.60
2022-11-27T07:07:51.328Z,9.17
2022-11-27T07:10:20.531Z,8.07
2022-11-27T07:12:50.138Z,8.37
2022-11-27T07:15:18.802Z,11.83
2022-11-27T07:17:47.163Z,10.77
2022-11-27T07:20:15.966Z,11.23
2022-11-27T07:22:44.550Z,7.93
2022-11-27T07:25:13.060Z,11.10
2022-11-27T07:27:41.525Z,8.97
2022-11-27T07:30:12.730Z,9.10
2022-11-27T07:32:41.113Z,9.13
2022-11-27T07:35:10.679Z,10.13
2022-11-27T07:37:39.175Z,9.50
2022-11-27T07:40:09.437Z,8.17
2022-11-27T07:42:39.314Z,8.63
2022-11-27T07:45:09.513Z,7.07
2022-11-27T07:47:40.066Z,11.87
2022-11-27T07:50:09.947Z,10.67
2022-11-27T07:52:42.187Z,8.37
2022-11-27T07:55:11.466Z,11.17
2022-11-27T07:57:40.202Z,8.33
2022-11-27T08:00:09.773Z,8.33
2022-11-27T08:02:39.698Z,9.00
2022-11-27T08:05:12.779Z,9.17
2022-11-27T08:07:41.802Z,9.80
2022-11-27T08:10:10.623Z,10.37
2022-11-27T08:12:39.092Z,7.90
2022-11-27T08:15:08.828Z,8.37
2022-11-27T08:17:37.520Z,7.87
2022-11-27T08:20:09.063Z,8.93
2022-11-27T08:22:37.943Z,8.90
2022-11-27T08:25:07.208Z,9.70
2022-11-27T08:27:36.330Z,7.30
2022-11-27T08:30:05.815Z,8.70
2022-11-27T08:32:34.288Z,10.60
2022-11-27T08:35:02.878Z,7.47
2022-11-27T08:37:32.659Z,9.37
2022-11-27T08:40:01.692Z,9.20
2022-11-27T08:42:30.482Z,10.20
2022-11-27T08:44:59.356Z,10.60
2022-11-27T08:47:46.132Z,9.27
2022-11-27T08:50:14.715Z,10.70
2022-11-27T08:52:44.814Z,10.13
2022-11-27T08:55:13.306Z,9.67
2022-11-27T08:57:42.169Z,8.63
2022-11-27T09:00:11.965Z,9.97
2022-11-27T09:02:40.552Z,9.67
2022-11-27T09:05:10.071Z,9.43
2022-11-27T09:07:38.689Z,9.33
2022-11-27T09:10:11.276Z,9.00
2022-11-27T09:12:43.411Z,8.30
2022-11-27T09:15:12.667Z,10.80
2022-11-27T09:17:41.705Z,11.37
2022-11-27T09:20:11.168Z,9.63
2022-11-27T09:22:41.051Z,8.60
2022-11-27T09:25:11.454Z,8.40
2022-11-27T09:27:40.379Z,9.13
2022-11-27T09:30:10.052Z,9.50
2022-11-27T09:32:45.116Z,7.80
2022-11-27T09:35:16.993Z,8.33
2022-11-27T09:37:45.549Z,12.37
2022-11-27T09:40:18.733Z,8.50
2022-11-27T09:42:51.890Z,10.90
2022-11-27T09:45:25.454Z,11.53
2022-11-27T09:47:57.519Z,8.83
2022-11-27T09:50:31.646Z,10.40
2022-11-27T09:53:05.060Z,8.93
2022-11-27T09:55:41.770Z,8.80
2022-11-27T09:58:20.039Z,10.37
2022-11-27T10:00:48.905Z,8.00
2022-11-27T10:03:21.337Z,9.70
2022-11-27T10:06:12.379Z,7.70
2022-11-27T10:08:47.568Z,10.30
2022-11-27T10:11:24.413Z,9.93
2022-11-27T10:14:05.577Z,11.37
2022-11-27T10:16:44.711Z,10.27
2022-11-27T10:19:32.757Z,9.27
2022-11-27T10:22:09.077Z,10.97
2022-11-27T10:24:46.821Z,11.53
2022-11-27T10:27:25.410Z,9.93
2022-11-27T10:29:58.531Z,9.13
2022-11-27T10:32:54.688Z,10.93
2022-11-27T10:35:23.232Z,8.27
2022-11-27T10:37:56.239Z,10.80
2022-11-27T10:40:30.170Z,10.07
2022-11-27T10:43:08.839Z,9.83
2022-11-27T10:45:45.766Z,9.73
2022-11-27T10:48:15.429Z,9.13
2022-11-27T10:50:45.992Z,10.43
2022-11-27T10:53:25.591Z,12.20
2022-11-27T10:56:24.468Z,9.53
2022-11-27T10:58:58.773Z,9.93
2022-11-27T11:01:30.673Z,12.63
2022-11-27T11:04:36.231Z,11.03
2022-11-27T11:07:04.011Z,11.93
2022-11-27T11:09:35.466Z,10.97
2022-11-27T11:12:10.256Z,7.90
2022-11-27T11:14:40.465Z,8.33
2022-11-27T11:17:16.511Z,9.87
2022-11-27T11:19:46.641Z,11.10
2022-11-27T11:22:17.480Z,10.90
2022-11-27T11:24:49.080Z,10.43
2022-11-27T11:27:22.539Z,9.97
2022-11-27T11:29:54.995Z,12.30
2022-11-27T11:32:27.506Z,12.33
2022-11-27T11:35:01.459Z,9.37
2022-11-27T11:37:32.570Z,9.03
2022-11-27T11:40:04.294Z,11.97
2022-11-27T11:42:35.338Z,10.53
2022-11-27T11:45:17.408Z,11.00
2022-11-27T11:47:47.025Z,9.67
2022-11-27T11:50:23.867Z,11.47
2022-11-27T11:53:00.602Z,8.70
2022-11-27T11:55:36.807Z,9.20
2022-11-27T11:58:42.024Z,10.17
2022-11-27T12:01:28.026Z,10.17
2022-11-27T12:04:09.099Z,11.27
2022-11-27T12:06:45.250Z,10.00
2022-11-27T12:09:47.275Z,11.90
2022-11-27T12:12:29.461Z,11.03
2022-11-27T12:15:04.919Z,11.27
2022-11-27T12:17:47.328Z,9.73
2022-11-27T12:20:22.527Z,10.60
2022-11-27T12:23:33.696Z,9.50
2022-11-27T12:26:11.975Z,9.77
2022-11-27T12:29:01.393Z,8.17
2022-11-27T12:31:47.140Z,9.50
2022-11-27T12:34:26.998Z,10.97
2022-11-27T12:37:14.043Z,12.67
2022-11-27T12:39:59.571Z,10.90
2022-11-27T12:42:31.792Z,10.53
2022-11-27T12:45:05.542Z,9.23
2022-11-27T12:47:42.106Z,9.40
2022-11-27T12:50:23.424Z,9.30
2022-11-27T12:53:00.001Z,8.73
2022-11-27T12:55:32.246Z,9.17
2022-11-27T12:58:04.737Z,9.70
2022-11-27T13:00:37.889Z,10.23
2022-11-27T13:03:12.782Z,9.43
2022-11-27T13:05:47.366Z,10.47
2022-11-27T13:08:20.507Z,9.10
2022-11-27T13:10:55.257Z,9.27
2022-11-27T13:13:30.306Z,9.13
2022-11-27T13:16:05.087Z,8.27
2022-11-27T13:18:36.761Z,9.70
2022-11-27T13:21:13.390Z,10.93
2022-11-27T13:23:42.352Z,8.40
2022-11-27T13:26:16.512Z,9.90
2022-11-27T13:28:48.018Z,12.03
2022-11-27T13:31:21.634Z,9.67
2022-11-27T13:33:54.010Z,12.00
2022-11-27T13:36:26.711Z,11.40
2022-11-27T13:38:59.056Z,10.33
2022-11-27T13:41:34.016Z,9.93
2022-11-27T13:44:04.896Z,9.10
2022-11-27T13:46:48.450Z,9.50
2022-11-27T13:49:26.882Z,11.13
2022-11-27T13:52:12.146Z,10.53
2022-11-27T13:54:41.583Z,12.83
2022-11-27T13:57:15.569Z,10.00
2022-11-27T13:59:57.377Z,8.93
2022-11-27T14:02:26.621Z,10.77
2022-11-27T14:04:56.766Z,11.10
2022-11-27T14:07:37.766Z,10.50
2022-11-27T14:10:14.664Z,9.63
2022-11-27T14:12:52.707Z,9.50
2022-11-27T14:15:25.238Z,10.77
2022-11-27T14:18:05.008Z,10.53
2022-11-27T14:20:48.604Z,10.20
2022-11-27T14:23:28.537Z,14.17
2022-11-27T14:26:04.510Z,11.37
2022-11-27T14:28:36.347Z,9.57
2022-11-27T14:31:05.645Z,11.10
2022-11-27T14:33:59.781Z,11.23
2022-11-27T14:36:26.062Z,8.83
2022-11-27T14:38:56.097Z,9.30
2022-11-27T14:41:27.339Z,12.30
2022-11-27T14:44:01.492Z,9.40
2022-11-27T14:46:33.301Z,9.67
2022-11-27T14:49:01.846Z,10.23
2022-11-27T14:51:34.926Z,10.50
2022-11-27T14:54:11.092Z,10.50
2022-11-27T14:56:43.476Z,10.20
2022-11-27T14:59:18.222Z,9.27
2022-11-27T15:01:58.646Z,9.43
2022-11-27T15:04:28.724Z,9.47
2022-11-27T15:06:59.477Z,12.63
2022-11-27T15:09:43.253Z,10.57
2022-11-27T15:12:17.844Z,12.17
2022-11-27T15:14:49.679Z,13.63
2022-11-27T15:17:26.185Z,13.57
2022-11-27T15:19:56.122Z,12.97
2022-11-27T15:22:25.272Z,12.37
2022-11-27T15:25:02.177Z,12.53
2022-11-27T15:27:33.648Z,13.20
2022-11-27T15:30:12.325Z,13.00
2022-11-27T15:32:52.238Z,11.93
2022-11-27T15:35:26.234Z,11.90
2022-11-27T15:37:57.123Z,12.37
2022-11-27T15:40:33.562Z,11.53
2022-11-27T15:43:01.889Z,12.83
2022-11-27T15:45:32.504Z,11.90
2022-11-27T15:48:02.478Z,10.53
2022-11-27T15:50:32.683Z,10.37
2022-11-27T15:53:03.253Z,9.57
2022-11-27T15:55:33.388Z,11.13
2022-11-27T15:58:02.183Z,10.30
2022-11-27T16:00:30.876Z,10.63
2022-11-27T16:02:59.483Z,8.93
2022-11-27T16:05:27.943Z,9.60
2022-11-27T16:07:58.794Z,11.77
2022-11-27T16:10:27.861Z,12.47
2022-11-27T16:12:58.905Z,8.93
2022-11-27T16:15:31.591Z,9.73
2022-11-27T16:18:02.444Z,9.40
2022-11-27T16:20:31.016Z,10.60
2022-11-27T16:23:00.531Z,10.80
2022-11-27T16:25:29.546Z,11.80
2022-11-27T16:28:02.813Z,12.13
2022-11-27T16:30:32.374Z,11.40
2022-11-27T16:33:00.960Z,12.03
2022-11-27T16:35:29.555Z,13.03
2022-11-27T16:37:58.094Z,12.43
2022-11-27T16:40:27.323Z,13.17
2022-11-27T16:42:55.879Z,11.53
2022-11-27T16:45:25.798Z,12.30
2022-11-27T16:47:58.737Z,12.70
2022-11-27T16:50:29.045Z,13.87
2022-11-27T16:52:58.204Z,13.13
2022-11-27T16:55:30.112Z,11.30
2022-11-27T16:57:59.509Z,12.47
2022-11-27T17:00:29.450Z,12.63
2022-11-27T17:03:01.226Z,11.00
2022-11-27T17:05:31.060Z,12.30
2022-11-27T17:07:59.841Z,12.27
2022-11-27T17:10:29.929Z,14.13
2022-11-27T17:12:58.485Z,12.50
2022-11-27T17:15:32.338Z,13.03
2022-11-27T17:18:04.777Z,12.07
2022-11-27T17:20:33.434Z,14.17
2022-11-27T17:23:06.628Z,13.43
2022-11-27T17:25:39.963Z,12.23
2022-11-27T17:28:09.045Z,13.97
2022-11-27T17:30:39.717Z,11.03
2022-11-27T17:33:10.028Z,12.73
2022-11-27T17:35:39.139Z,12.73
2022-11-27T17:38:08.816Z,14.03
2022-11-27T17:40:40.653Z,13.63
2022-11-27T17:43:12.450Z,12.97
2022-11-27T17:45:42.219Z,12.73
2022-11-27T17:48:14.732Z,12.33
2022-11-27T17:50:43.087Z,10.93
2022-11-27T17:53:11.649Z,11.67
2022-11-27T17:55:42.555Z,12.87
2022-11-27T17:58:10.939Z,11.90
2022-11-27T18:00:41.869Z,14.73
2022-11-27T18:03:15.819Z,14.13
2022-11-27T18:05:44.412Z,12.43
2022-11-27T18:08:13.806Z,11.77
2022-11-27T18:10:42.515Z,11.47
2022-11-27T18:13:11.239Z,11.97
2022-11-27T18:15:39.685Z,11.10
2022-11-27T18:18:08.411Z,10.37
2022-11-27T18:20:38.272Z,10.47
2022-11-27T18:23:09.467Z,11.67
2022-11-27T18:25:47.703Z,10.97
2022-11-27T18:28:17.670Z,12.50
2022-11-27T18:30:46.089Z,10.90
2022-11-27T18:33:14.719Z,14.03
2022-11-27T18:35:44.800Z,12.40
2022-11-27T18:38:13.512Z,12.00
2022-11-27T18:40:42.197Z,11.07
2022-11-27T18:43:11.540Z,12.70
2022-11-27T18:45:40.140Z,13.30
2022-11-27T18:48:08.563Z,12.17
2022-11-27T18:50:38.208Z,13.37
2022-11-27T18:53:07.919Z,15.40
2022-11-27T18:55:36.614Z,13.93
2022-11-27T18:58:05.546Z,13.63
2022-11-27T19:00:37.238Z,12.10
2022-11-27T19:03:05.614Z,12.93
2022-11-27T19:05:36.641Z,13.20
2022-11-27T19:08:07.622Z,14.10
2022-11-27T19:10:37.590Z,14.00
2022-11-27T19:13:05.900Z,13.20
2022-11-27T19:15:34.405Z,13.10
2022-11-27T19:18:02.701Z,15.00
2022-11-27T19:20:36.648Z,15.27
2022-11-27T19:23:06.048Z,11.70
2022-11-27T19:25:39.688Z,15.30
2022-11-27T19:28:10.139Z,15.03
2022-11-27T19:30:40.739Z,13.33
2022-11-27T19:33:09.477Z,14.13
2022-11-27T19:35:38.199Z,14.33
2022-11-27T19:38:06.623Z,13.67
2022-11-27T19:40:38.829Z,16.70
2022-11-27T19:43:07.306Z,13.07
2022-11-27T19:45:37.314Z,12.20
2022-11-27T19:48:06.040Z,13.40
2022-11-27T19:50:34.462Z,14.20
2022-11-27T19:53:04.867Z,12.93
2022-11-27T19:55:33.288Z,12.47
2022-11-27T19:58:03.226Z,10.63
2022-11-27T20:00:31.973Z,12.00
2022-11-27T20:03:00.680Z,10.97
2022-11-27T20:05:28.986Z,11.77
2022-11-27T20:07:59.514Z,12.90
2022-11-27T20:10:28.648Z,14.20
2022-11-27T20:13:02.192Z,11.37
2022-11-27T20:15:30.893Z,13.70
2022-11-27T20:17:59.591Z,12.17
2022-11-27T20:20:32.800Z,10.70
2022-11-27T20:23:02.550Z,13.00
2022-11-27T20:25:31.103Z,12.90
2022-11-27T20:27:59.976Z,12.00
2022-11-27T20:30:30.673Z,12.70
2022-11-27T20:33:01.999Z,13.57
2022-11-27T20:35:34.600Z,11.43
2022-11-27T20:38:03.543Z,12.40
2022-11-27T20:40:32.010Z,10.20
2022-11-27T20:43:00.806Z,10.50
2022-11-27T20:45:30.727Z,11.13
2022-11-27T20:47:59.533Z,11.67
2022-11-27T20:50:27.756Z,10.83
2022-11-27T20:52:56.120Z,10.97
2022-11-27T20:55:24.561Z,10.43
2022-11-27T20:57:54.988Z,11.43
2022-11-27T21:00:24.147Z,11.73
2022-11-27T21:02:54.372Z,10.90
2022-11-27T21:05:22.689Z,10.97
2022-11-27T21:07:51.389Z,11.37
2022-11-27T21:10:20.169Z,12.20
2022-11-27T21:12:49.304Z,9.70
2022-11-27T21:15:18.120Z,9.47
2022-11-27T21:17:46.544Z,10.77
2022-11-27T21:20:16.650Z,10.00
2022-11-27T21:22:46.265Z,10.73
2022-11-27T21:25:15.712Z,10.53
2022-11-27T21:27:44.254Z,11.57
2022-11-27T21:30:12.811Z,10.80
2022-11-27T21:32:41.172Z,9.73
2022-11-27T21:35:11.127Z,10.43
2022-11-27T21:37:41.055Z,12.47
2022-11-27T21:40:10.004Z,11.63
2022-11-27T21:42:43.091Z,11.27
2022-11-27T21:45:12.888Z,9.60
2022-11-27T21:47:41.685Z,10.90
2022-11-27T21:50:11.759Z,10.83
2022-11-27T21:52:42.007Z,9.33
2022-11-27T21:55:12.213Z,11.63
2022-11-27T21:57:41.273Z,10.50
2022-11-27T22:00:10.805Z,11.13
2022-11-27T22:02:40.458Z,12.27
2022-11-27T22:05:09.820Z,11.30
2022-11-27T22:07:39.188Z,10.93
2022-11-27T22:10:11.044Z,11.47
2022-11-27T22:12:39.757Z,12.37
2022-11-27T22:15:08.912Z,14.87
2022-11-27T22:17:38.331Z,10.20
2022-11-27T22:20:08.023Z,12.37
2022-11-27T22:22:36.488Z,14.27
2022-11-27T22:25:05.342Z,11.13
2022-11-27T22:27:35.055Z,12.47
2022-11-27T22:30:03.545Z,12.30
2022-11-27T22:32:31.868Z,11.50
2022-11-27T22:35:01.140Z,12.50
2022-11-27T22:37:29.595Z,11.67
2022-11-27T22:39:58.216Z,11.00
2022-11-27T22:42:26.733Z,12.23
2022-11-27T22:44:56.522Z,11.97
2022-11-27T22:47:24.788Z,12.37
2022-11-27T22:49:53.150Z,11.20
2022-11-27T22:52:21.408Z,12.87
2022-11-27T22:54:49.937Z,11.83
2022-11-27T22:57:18.801Z,11.23
2022-11-27T22:59:47.727Z,14.43
2022-11-27T23:02:18.182Z,14.37
2022-11-27T23:04:46.894Z,14.97
2022-11-27T23:07:17.791Z,12.10
2022-11-27T23:09:48.300Z,12.30
2022-11-27T23:12:16.617Z,11.27
2022-11-27T23:14:45.076Z,12.87
2022-11-27T23:17:13.686Z,13.30
2022-11-27T23:19:43.615Z,11.77
2022-11-27T23:22:11.970Z,13.77
2022-11-27T23:24:41.072Z,12.10
2022-11-27T23:27:09.848Z,12.43
2022-11-27T23:29:38.424Z,11.93
2022-11-27T23:32:06.849Z,13.80
2022-11-27T23:34:35.440Z,10.87
2022-11-27T23:37:05.302Z,11.47
2022-11-27T23:39:34.012Z,9.60
2022-11-27T23:42:02.331Z,11.10
2022-11-27T23:44:30.752Z,11.60
2022-11-27T23:46:59.243Z,10.67
2022-11-27T23:49:28.028Z,10.73
2022-11-27T23:51:59.010Z,10.63
2022-11-27T23:54:28.937Z,11.00
2022-11-27T23:56:57.627Z,9.17
2022-11-27T23:59:26.141Z,10.43
